createdAt,value
2023-01-18T00:01:13.905Z,9.40
2023-01-18T00:03:42.156Z,8.30
2023-01-18T00:06:10.944Z,8.83
2023-01-18T00:08:39.683Z,10.00
2023-01-18T00:11:09.322Z,10.40
2023-01-18T00:13:37.206Z,9.93
2023-01-18T00:16:11.564Z,9.73
2023-01-18T00:18:39.435Z,8.97
2023-01-18T00:21:10.525Z,10.60
2023-01-18T00:23:39.003Z,8.03
2023-01-18T00:26:08.801Z,9.23
2023-01-18T00:28:36.927Z,10.10
2023-01-18T00:31:12.782Z,9.20
2023-01-18T00:33:43.311Z,10.50
2023-01-18T00:36:11.296Z,10.97
2023-01-18T00:38:38.592Z,8.13
2023-01-18T00:41:06.454Z,8.47
2023-01-18T00:43:39.602Z,9.27
2023-01-18T00:46:18.070Z,10.40
2023-01-18T00:48:45.384Z,11.43
2023-01-18T00:51:15.946Z,11.23
2023-01-18T00:53:45.635Z,10.50
2023-01-18T00:56:20.083Z,9.90
2023-01-18T00:58:47.744Z,10.80
2023-01-18T01:01:15.166Z,10.10
2023-01-18T01:04:01.910Z,10.40
2023-01-18T01:06:44.273Z,11.60
2023-01-18T01:09:17.483Z,10.30
2023-01-18T01:12:05.396Z,10.60
2023-01-18T01:14:53.581Z,10.13
2023-01-18T01:17:39.490Z,10.47
2023-01-18T01:20:26.397Z,10.60
2023-01-18T01:23:12.113Z,11.77
2023-01-18T01:25:58.313Z,12.00
2023-01-18T01:28:26.078Z,11.40
2023-01-18T01:30:57.462Z,10.60
2023-01-18T01:33:24.654Z,10.80
2023-01-18T01:35:56.735Z,11.70
2023-01-18T01:38:24.515Z,12.77
2023-01-18T01:41:00.108Z,10.53
2023-01-18T01:43:46.703Z,11.87
2023-01-18T01:46:43.421Z,10.40
2023-01-18T01:49:26.711Z,12.43
2023-01-18T01:52:27.218Z,10.17
2023-01-18T01:55:13.741Z,10.60
2023-01-18T01:57:50.698Z,10.47
2023-01-18T02:00:21.018Z,13.17
2023-01-18T02:02:57.849Z,11.90
2023-01-18T02:05:26.712Z,10.57
2023-01-18T02:07:58.364Z,12.70
2023-01-18T02:10:25.563Z,12.20
2023-01-18T02:12:54.657Z,10.10
2023-01-18T02:15:29.416Z,10.60
2023-01-18T02:18:07.717Z,12.80
2023-01-18T02:21:13.039Z,11.27
2023-01-18T02:24:17.349Z,12.33
2023-01-18T02:27:01.408Z,11.97
2023-01-18T02:30:02.387Z,12.70
2023-01-18T02:32:48.672Z,13.43
2023-01-18T02:35:37.591Z,11.93
2023-01-18T02:38:12.282Z,12.17
2023-01-18T02:40:48.858Z,12.27
2023-01-18T02:43:38.092Z,11.97
2023-01-18T02:46:28.895Z,12.53
2023-01-18T02:48:57.978Z,10.80
2023-01-18T02:51:25.287Z,10.80
2023-01-18T02:53:52.597Z,12.97
2023-01-18T02:56:35.238Z,12.80
2023-01-18T02:59:20.668Z,10.67
2023-01-18T03:01:52.698Z,13.30
2023-01-18T03:04:54.003Z,12.70
2023-01-18T03:07:32.693Z,11.57
2023-01-18T03:10:02.895Z,12.20
2023-01-18T03:12:58.755Z,12.27
2023-01-18T03:15:51.643Z,12.17
2023-01-18T03:19:00.066Z,12.77
2023-01-18T03:21:34.908Z,12.60
2023-01-18T03:24:05.926Z,13.57
2023-01-18T03:26:38.373Z,13.53
2023-01-18T03:29:25.837Z,11.47
2023-01-18T03:32:19.136Z,11.60
2023-01-18T03:34:49.143Z,11.03
2023-01-18T03:37:23.908Z,12.70
2023-01-18T03:39:56.405Z,11.77
2023-01-18T03:42:32.413Z,12.57
2023-01-18T03:45:10.741Z,13.07
2023-01-18T03:47:38.513Z,13.43
2023-01-18T03:50:05.937Z,11.97
2023-01-18T03:52:41.987Z,14.20
2023-01-18T03:55:29.061Z,12.17
2023-01-18T03:58:01.034Z,12.50
2023-01-18T04:00:31.318Z,11.83
2023-01-18T04:02:59.089Z,14.20
2023-01-18T04:05:26.667Z,10.80
2023-01-18T04:07:53.949Z,11.50
2023-01-18T04:10:21.497Z,11.93
2023-01-18T04:12:48.659Z,11.90
2023-01-18T04:15:16.593Z,12.80
2023-01-18T04:17:43.969Z,10.80
2023-01-18T04:20:11.513Z,11.77
2023-01-18T04:22:39.213Z,12.70
2023-01-18T04:25:06.805Z,12.83
2023-01-18T04:27:34.006Z,13.57
2023-01-18T04:30:01.793Z,13.40
2023-01-18T04:32:29.051Z,11.90
2023-01-18T04:34:56.343Z,13.47
2023-01-18T04:37:30.239Z,14.03
2023-01-18T04:39:57.815Z,12.87
2023-01-18T04:42:25.804Z,12.20
2023-01-18T04:44:53.676Z,13.10
2023-01-18T04:47:20.954Z,13.13
2023-01-18T04:49:48.155Z,12.57
2023-01-18T04:52:15.639Z,14.50
2023-01-18T04:54:43.591Z,14.70
2023-01-18T04:57:10.768Z,14.47
2023-01-18T04:59:39.159Z,13.90
2023-01-18T05:02:06.375Z,14.37
2023-01-18T05:04:33.560Z,12.73
2023-01-18T05:07:02.216Z,13.63
2023-01-18T05:09:29.616Z,14.87
2023-01-18T05:11:56.852Z,15.03
2023-01-18T05:14:24.113Z,13.30
2023-01-18T05:16:51.336Z,14.60
2023-01-18T05:19:18.748Z,13.97
2023-01-18T05:21:45.953Z,14.57
2023-01-18T05:24:13.156Z,15.67
2023-01-18T05:26:40.640Z,15.67
2023-01-18T05:29:07.939Z,13.60
2023-01-18T05:31:35.202Z,15.10
2023-01-18T05:34:03.048Z,14.20
2023-01-18T05:36:30.867Z,14.40
2023-01-18T05:38:58.072Z,14.27
2023-01-18T05:41:25.299Z,14.33
2023-01-18T05:43:52.620Z,15.57
2023-01-18T05:46:19.831Z,14.07
2023-01-18T05:48:47.464Z,14.60
2023-01-18T05:51:14.735Z,15.70
2023-01-18T05:53:42.014Z,17.17
2023-01-18T05:56:10.024Z,16.17
2023-01-18T05:58:38.311Z,14.97
2023-01-18T06:01:07.496Z,16.40
2023-01-18T06:03:36.347Z,13.77
2023-01-18T06:06:03.668Z,14.70
2023-01-18T06:08:31.011Z,16.00
2023-01-18T06:10:59.586Z,14.40
2023-01-18T06:13:29.629Z,14.70
2023-01-18T06:15:58.093Z,15.87
2023-01-18T06:18:27.161Z,14.13
2023-01-18T06:21:01.110Z,15.57
2023-01-18T06:23:30.064Z,15.87
2023-01-18T06:25:57.795Z,13.60
2023-01-18T06:28:25.957Z,14.20
2023-01-18T06:30:55.006Z,15.20
2023-01-18T06:33:23.062Z,14.10
2023-01-18T06:35:50.471Z,13.20
2023-01-18T06:38:17.751Z,15.33
2023-01-18T06:40:44.978Z,13.93
2023-01-18T06:43:14.028Z,15.63
2023-01-18T06:45:41.638Z,14.17
2023-01-18T06:48:09.074Z,15.50
2023-01-18T06:50:36.248Z,12.97
2023-01-18T06:53:03.664Z,15.57
2023-01-18T06:55:30.838Z,14.67
2023-01-18T06:57:58.124Z,15.97
2023-01-18T07:00:25.404Z,14.87
2023-01-18T07:02:53.324Z,14.93
2023-01-18T07:05:20.712Z,14.70
2023-01-18T07:07:59.362Z,14.40
2023-01-18T07:10:45.394Z,14.50
2023-01-18T07:13:32.153Z,13.30
2023-01-18T07:16:05.075Z,15.90
2023-01-18T07:18:32.793Z,15.30
2023-01-18T07:21:08.396Z,14.80
2023-01-18T07:23:40.269Z,15.33
2023-01-18T07:26:16.326Z,16.13
2023-01-18T07:28:47.680Z,14.90
2023-01-18T07:31:16.531Z,14.03
2023-01-18T07:33:45.050Z,16.30
2023-01-18T07:36:13.925Z,14.83
2023-01-18T07:38:42.523Z,14.23
2023-01-18T07:41:14.176Z,13.87
2023-01-18T07:43:44.638Z,14.87
2023-01-18T07:46:20.613Z,15.90
2023-01-18T07:48:48.899Z,15.27
2023-01-18T07:51:16.200Z,16.60
2023-01-18T07:53:44.810Z,16.97
2023-01-18T07:56:17.793Z,16.63
2023-01-18T07:58:45.880Z,14.50
2023-01-18T08:01:16.576Z,15.17
2023-01-18T08:03:48.465Z,16.13
2023-01-18T08:06:25.199Z,15.80
2023-01-18T08:08:54.737Z,15.70
2023-01-18T08:11:22.733Z,14.93
2023-01-18T08:13:52.776Z,14.60
2023-01-18T08:16:20.180Z,14.67
2023-01-18T08:18:50.799Z,16.43
2023-01-18T08:21:18.163Z,14.50
2023-01-18T08:23:45.418Z,15.57
2023-01-18T08:26:14.879Z,15.80
2023-01-18T08:28:42.366Z,15.43
2023-01-18T08:31:16.420Z,16.10
2023-01-18T08:33:47.470Z,15.87
2023-01-18T08:36:20.943Z,15.00
2023-01-18T08:38:50.548Z,14.63
2023-01-18T08:41:37.874Z,14.93
2023-01-18T08:44:23.684Z,14.53
2023-01-18T08:46:51.337Z,14.63
2023-01-18T08:49:37.238Z,15.43
2023-01-18T08:52:23.323Z,15.13
2023-01-18T08:55:09.708Z,15.43
2023-01-18T08:57:56.676Z,14.40
2023-01-18T09:00:42.249Z,14.40
2023-01-18T09:03:30.293Z,14.37
2023-01-18T09:06:17.044Z,15.13
2023-01-18T09:08:49.631Z,11.43
2023-01-18T09:11:18.417Z,14.70
2023-01-18T09:14:04.199Z,14.97
2023-01-18T09:16:33.357Z,12.63
2023-01-18T09:19:20.003Z,15.40
2023-01-18T09:22:06.298Z,12.77
2023-01-18T09:24:52.675Z,13.63
2023-01-18T09:27:19.885Z,12.60
2023-01-18T09:30:09.694Z,14.77
2023-01-18T09:32:37.109Z,12.97
2023-01-18T09:35:06.030Z,13.47
2023-01-18T09:37:34.181Z,13.33
2023-01-18T09:40:02.281Z,14.37
2023-01-18T09:42:36.661Z,10.90
2023-01-18T09:45:04.674Z,11.40
2023-01-18T09:47:39.153Z,11.13
2023-01-18T09:50:18.681Z,13.07
2023-01-18T09:53:11.139Z,12.90
2023-01-18T09:56:04.211Z,12.70
2023-01-18T09:58:41.457Z,12.83
2023-01-18T10:01:19.105Z,11.43
2023-01-18T10:03:56.967Z,13.30
2023-01-18T10:06:50.905Z,13.03
2023-01-18T10:09:28.348Z,13.70
2023-01-18T10:12:08.949Z,12.70
2023-01-18T10:14:58.330Z,12.63
2023-01-18T10:17:40.995Z,12.30
2023-01-18T10:20:17.157Z,10.53
2023-01-18T10:23:23.131Z,11.57
2023-01-18T10:26:06.898Z,11.33
2023-01-18T10:28:50.515Z,9.30
2023-01-18T10:31:35.330Z,11.57
2023-01-18T10:34:04.576Z,11.60
2023-01-18T10:36:38.303Z,12.47
2023-01-18T10:39:25.435Z,11.03
2023-01-18T10:41:53.592Z,11.23
2023-01-18T10:44:21.992Z,11.70
2023-01-18T10:46:49.247Z,11.70
2023-01-18T10:49:37.754Z,12.83
2023-01-18T10:52:28.323Z,11.93
2023-01-18T10:55:02.159Z,10.77
2023-01-18T10:57:35.259Z,10.80
2023-01-18T11:00:12.451Z,12.37
2023-01-18T11:02:40.178Z,11.80
2023-01-18T11:05:34.632Z,11.03
2023-01-18T11:08:14.336Z,12.47
2023-01-18T11:10:42.600Z,11.50
2023-01-18T11:13:55.178Z,10.53
2023-01-18T11:16:23.562Z,11.50
2023-01-18T11:19:17.589Z,12.50
2023-01-18T11:21:46.870Z,10.47
2023-01-18T11:24:26.923Z,11.43
2023-01-18T11:27:01.658Z,11.80
2023-01-18T11:29:43.052Z,11.10
2023-01-18T11:32:29.437Z,10.17
2023-01-18T11:34:58.665Z,10.57
2023-01-18T11:37:37.526Z,10.37
2023-01-18T11:40:21.255Z,9.63
2023-01-18T11:42:53.203Z,11.47
2023-01-18T11:45:26.974Z,10.60
2023-01-18T11:48:11.557Z,10.13
2023-01-18T11:50:43.388Z,10.20
2023-01-18T11:53:43.533Z,10.00
2023-01-18T11:56:21.682Z,11.10
2023-01-18T11:58:49.551Z,9.87
2023-01-18T12:01:43.409Z,9.83
2023-01-18T12:04:33.130Z,11.10
2023-01-18T12:07:07.680Z,10.67
2023-01-18T12:09:56.632Z,10.83
2023-01-18T12:12:53.397Z,10.90
2023-01-18T12:15:44.168Z,10.00
2023-01-18T12:18:31.633Z,9.30
2023-01-18T12:21:15.959Z,10.27
2023-01-18T12:24:10.675Z,10.27
2023-01-18T12:26:37.810Z,10.03
2023-01-18T12:29:31.195Z,9.33
2023-01-18T12:32:01.155Z,8.70
2023-01-18T12:34:46.894Z,9.97
2023-01-18T12:37:36.285Z,9.80
2023-01-18T12:40:32.251Z,8.67
2023-01-18T12:43:31.595Z,9.57
2023-01-18T12:46:08.855Z,9.10
2023-01-18T12:48:46.967Z,9.60
2023-01-18T12:51:18.424Z,9.27
2023-01-18T12:53:51.756Z,9.23
2023-01-18T12:56:43.474Z,9.37
2023-01-18T12:59:17.699Z,9.30
2023-01-18T13:01:51.900Z,9.60
2023-01-18T13:04:31.102Z,9.00
2023-01-18T13:07:07.062Z,9.73
2023-01-18T13:09:40.271Z,9.00
2023-01-18T13:12:07.927Z,8.57
2023-01-18T13:14:41.343Z,8.93
2023-01-18T13:17:13.352Z,8.07
2023-01-18T13:20:05.095Z,8.60
2023-01-18T13:22:56.142Z,9.80
2023-01-18T13:25:50.635Z,9.07
2023-01-18T13:28:25.835Z,8.73
2023-01-18T13:31:01.960Z,8.70
2023-01-18T13:33:33.058Z,7.87
2023-01-18T13:36:03.375Z,7.80
2023-01-18T13:38:41.565Z,7.67
2023-01-18T13:41:11.975Z,9.00
2023-01-18T13:43:45.604Z,8.70
2023-01-18T13:46:25.392Z,9.60
2023-01-18T13:49:00.171Z,8.03
2023-01-18T13:51:36.701Z,9.33
2023-01-18T13:54:04.327Z,8.63
2023-01-18T13:56:33.316Z,7.90
2023-01-18T13:59:04.720Z,8.37
2023-01-18T14:01:35.259Z,8.10
2023-01-18T14:04:31.903Z,9.43
2023-01-18T14:07:05.468Z,9.03
2023-01-18T14:09:43.771Z,8.63
2023-01-18T14:12:12.902Z,8.67
2023-01-18T14:15:00.967Z,8.37
2023-01-18T14:17:33.425Z,9.13
2023-01-18T14:20:45.521Z,8.90
2023-01-18T14:23:27.245Z,9.40
2023-01-18T14:25:57.339Z,7.77
2023-01-18T14:28:46.624Z,9.13
2023-01-18T14:31:20.915Z,8.40
2023-01-18T14:33:49.722Z,7.83
2023-01-18T14:36:22.825Z,7.40
2023-01-18T14:39:17.488Z,7.37
2023-01-18T14:41:48.706Z,8.00
2023-01-18T14:44:20.940Z,8.33
2023-01-18T14:46:54.611Z,8.60
2023-01-18T14:49:37.872Z,9.33
2023-01-18T14:52:07.768Z,8.27
2023-01-18T14:54:36.733Z,7.83
2023-01-18T14:57:05.792Z,8.03
2023-01-18T14:59:33.925Z,8.83
2023-01-18T15:02:17.421Z,7.17
2023-01-18T15:04:46.498Z,7.50
2023-01-18T15:07:19.049Z,7.60
2023-01-18T15:09:47.135Z,7.63
2023-01-18T15:12:20.999Z,9.80
2023-01-18T15:14:50.632Z,8.13
2023-01-18T15:17:25.153Z,8.27
2023-01-18T15:19:59.821Z,8.73
2023-01-18T15:22:35.919Z,7.77
2023-01-18T15:25:03.865Z,7.87
2023-01-18T15:27:34.152Z,8.43
2023-01-18T15:30:02.017Z,7.50
2023-01-18T15:32:31.846Z,7.90
2023-01-18T15:35:00.884Z,8.87
2023-01-18T15:37:30.817Z,8.50
2023-01-18T15:39:58.135Z,8.37
2023-01-18T15:42:30.267Z,7.80
2023-01-18T15:45:00.206Z,7.93
2023-01-18T15:47:31.421Z,7.13
2023-01-18T15:50:01.786Z,8.73
2023-01-18T15:52:44.983Z,8.77
2023-01-18T15:55:25.638Z,8.63
2023-01-18T15:58:00.907Z,9.60
2023-01-18T16:00:40.852Z,8.10
2023-01-18T16:03:22.651Z,8.93
2023-01-18T16:06:08.123Z,7.27
2023-01-18T16:08:35.591Z,8.50
2023-01-18T16:11:02.855Z,8.17
2023-01-18T16:13:38.950Z,10.10
2023-01-18T16:16:20.531Z,9.90
2023-01-18T16:19:06.652Z,9.47
2023-01-18T16:21:58.765Z,9.53
2023-01-18T16:24:46.494Z,9.50
2023-01-18T16:27:16.235Z,9.30
2023-01-18T16:29:46.456Z,9.87
2023-01-18T16:32:27.723Z,8.43
2023-01-18T16:35:16.631Z,9.03
2023-01-18T16:37:44.625Z,10.10
2023-01-18T16:40:17.900Z,8.77
2023-01-18T16:42:57.065Z,9.20
2023-01-18T16:45:24.570Z,8.60
2023-01-18T16:47:51.850Z,9.67
2023-01-18T16:50:19.442Z,10.37
2023-01-18T16:52:46.953Z,9.40
2023-01-18T16:55:15.366Z,10.23
2023-01-18T16:57:42.990Z,10.30
2023-01-18T17:00:23.302Z,10.23
2023-01-18T17:02:51.743Z,10.77
2023-01-18T17:05:20.667Z,10.10
2023-01-18T17:07:47.991Z,10.13
2023-01-18T17:10:28.826Z,10.90
2023-01-18T17:12:56.073Z,9.00
2023-01-18T17:15:23.287Z,8.60
2023-01-18T17:17:50.466Z,10.07
2023-01-18T17:20:20.784Z,10.60
2023-01-18T17:22:50.531Z,9.10
2023-01-18T17:25:18.157Z,9.67
2023-01-18T17:27:45.995Z,6.97
2023-01-18T17:30:16.422Z,9.37
2023-01-18T17:32:46.093Z,10.70
2023-01-18T17:35:15.190Z,9.60
2023-01-18T17:37:42.443Z,8.67
2023-01-18T17:40:17.038Z,8.00
2023-01-18T17:42:52.123Z,9.60
2023-01-18T17:45:19.318Z,10.30
2023-01-18T17:47:46.556Z,9.50
2023-01-18T17:50:18.898Z,11.00
2023-01-18T17:52:46.280Z,5.70
2023-01-18T17:55:14.379Z,9.50
2023-01-18T17:57:43.483Z,10.27
2023-01-18T18:00:13.799Z,6.93
2023-01-18T18:02:42.326Z,8.57
2023-01-18T18:05:10.621Z,9.50
2023-01-18T18:07:38.311Z,9.80
2023-01-18T18:10:06.562Z,9.00
2023-01-18T18:12:35.143Z,9.30
2023-01-18T18:15:03.120Z,10.27
2023-01-18T18:17:31.797Z,9.70
2023-01-18T18:19:59.397Z,10.70
2023-01-18T18:22:27.818Z,8.07
2023-01-18T18:24:55.097Z,9.43
2023-01-18T18:27:24.843Z,10.00
2023-01-18T18:29:54.130Z,10.10
2023-01-18T18:32:22.471Z,10.17
2023-01-18T18:34:49.754Z,9.47
2023-01-18T18:37:19.070Z,7.40
2023-01-18T18:39:46.415Z,9.90
2023-01-18T18:42:14.643Z,8.57
2023-01-18T18:44:42.571Z,6.50
2023-01-18T18:47:09.899Z,8.83
2023-01-18T18:49:37.164Z,8.13
2023-01-18T18:52:05.102Z,9.40
2023-01-18T18:54:32.487Z,7.90
2023-01-18T18:57:00.390Z,8.80
2023-01-18T18:59:27.605Z,7.37
2023-01-18T19:01:55.798Z,8.40
2023-01-18T19:04:23.797Z,7.07
2023-01-18T19:06:50.944Z,9.33
2023-01-18T19:09:18.323Z,10.57
2023-01-18T19:11:54.254Z,9.20
2023-01-18T19:14:25.526Z,9.23
2023-01-18T19:16:54.229Z,9.03
2023-01-18T19:19:22.096Z,8.57
2023-01-18T19:21:49.955Z,6.03
2023-01-18T19:24:17.239Z,11.27
2023-01-18T19:26:45.223Z,9.03
2023-01-18T19:29:12.830Z,8.40
2023-01-18T19:31:40.521Z,9.10
2023-01-18T19:34:08.264Z,9.20
2023-01-18T19:36:35.491Z,10.17
2023-01-18T19:39:03.529Z,9.80
2023-01-18T19:41:33.005Z,9.47
2023-01-18T19:44:00.279Z,8.57
2023-01-18T19:46:28.064Z,11.57
2023-01-18T19:48:58.128Z,5.80
2023-01-18T19:51:25.738Z,6.60
2023-01-18T19:53:54.358Z,8.87
2023-01-18T19:56:22.593Z,10.40
2023-01-18T19:58:50.622Z,9.10
2023-01-18T20:01:34.828Z,9.60
2023-01-18T20:04:04.994Z,6.10
2023-01-18T20:06:32.920Z,9.87
2023-01-18T20:09:00.156Z,8.03
2023-01-18T20:11:27.371Z,8.80
2023-01-18T20:13:55.436Z,8.20
2023-01-18T20:16:24.488Z,9.00
2023-01-18T20:18:52.916Z,7.00
2023-01-18T20:21:20.225Z,7.23
2023-01-18T20:23:47.748Z,11.90
2023-01-18T20:26:20.072Z,6.20
2023-01-18T20:28:55.819Z,7.00
2023-01-18T20:31:23.139Z,9.53
2023-01-18T20:33:50.621Z,10.17
2023-01-18T20:36:17.845Z,9.80
2023-01-18T20:38:45.012Z,10.27
2023-01-18T20:41:12.794Z,9.40
2023-01-18T20:43:40.343Z,10.50
2023-01-18T20:46:10.091Z,7.83
2023-01-18T20:48:38.216Z,8.77
2023-01-18T20:51:07.426Z,5.33
2023-01-18T20:53:35.799Z,10.00
2023-01-18T20:56:27.860Z,9.30
2023-01-18T20:58:55.967Z,5.13
2023-01-18T21:01:23.222Z,9.43
2023-01-18T21:03:54.997Z,9.40
2023-01-18T21:06:22.462Z,8.13
2023-01-18T21:08:54.341Z,8.47
2023-01-18T21:11:23.014Z,9.40
2023-01-18T21:13:50.947Z,9.13
2023-01-18T21:16:18.572Z,10.13
2023-01-18T21:18:45.949Z,7.57
2023-01-18T21:21:13.310Z,8.50
2023-01-18T21:23:41.586Z,9.50
2023-01-18T21:26:11.696Z,10.03
2023-01-18T21:28:39.551Z,9.47
2023-01-18T21:31:07.087Z,6.97
2023-01-18T21:33:34.958Z,8.40
2023-01-18T21:36:07.148Z,9.60
2023-01-18T21:38:34.916Z,5.70
2023-01-18T21:41:21.105Z,8.77
2023-01-18T21:44:07.607Z,7.87
2023-01-18T21:46:34.807Z,8.77
2023-01-18T21:49:03.783Z,8.47
2023-01-18T21:51:49.625Z,8.00
2023-01-18T21:54:17.204Z,9.10
2023-01-18T21:56:45.744Z,10.23
2023-01-18T21:59:13.553Z,8.33
2023-01-18T22:01:43.283Z,8.50
2023-01-18T22:04:31.929Z,5.60
2023-01-18T22:07:00.179Z,6.93
2023-01-18T22:09:29.040Z,8.17
2023-01-18T22:11:57.296Z,7.70
2023-01-18T22:14:25.576Z,9.27
2023-01-18T22:16:53.195Z,9.63
2023-01-18T22:19:20.502Z,9.53
2023-01-18T22:21:48.476Z,6.87
2023-01-18T22:24:17.019Z,8.67
2023-01-18T22:26:45.696Z,9.13
2023-01-18T22:29:13.202Z,11.10
2023-01-18T22:31:41.058Z,11.00
2023-01-18T22:34:08.393Z,9.13
2023-01-18T22:36:35.591Z,11.13
2023-01-18T22:39:02.891Z,10.40
2023-01-18T22:41:30.139Z,10.43
2023-01-18T22:43:57.314Z,7.93
2023-01-18T22:46:25.085Z,9.73
2023-01-18T22:48:52.570Z,9.20
2023-01-18T22:51:22.838Z,9.93
2023-01-18T22:53:50.908Z,9.77
2023-01-18T22:56:20.948Z,11.37
2023-01-18T22:58:48.967Z,10.60
2023-01-18T23:01:20.192Z,9.63
2023-01-18T23:03:49.922Z,8.70
2023-01-18T23:06:18.391Z,10.80
2023-01-18T23:08:47.119Z,8.97
2023-01-18T23:11:20.845Z,8.73
2023-01-18T23:14:12.899Z,10.10
2023-01-18T23:16:59.258Z,8.10
2023-01-18T23:19:29.455Z,9.00
2023-01-18T23:21:57.103Z,9.10
2023-01-18T23:24:24.389Z,7.10
2023-01-18T23:26:52.212Z,9.30
2023-01-18T23:29:20.373Z,8.83
2023-01-18T23:31:48.110Z,10.63
2023-01-18T23:34:16.284Z,9.17
2023-01-18T23:36:43.584Z,8.97
2023-01-18T23:39:29.312Z,10.07
2023-01-18T23:42:15.402Z,9.90
2023-01-18T23:45:01.451Z,7.70
2023-01-18T23:47:47.591Z,9.17
2023-01-18T23:50:34.033Z,9.80
2023-01-18T23:53:20.444Z,8.40
2023-01-18T23:55:51.455Z,9.83
2023-01-18T23:58:18.622Z,6.13
